sensor_id;sensor_type;location;lat;lon;timestamp;P1;durP1;ratioP1;P2;durP2;ratioP2
45887;SDS011;31595;51.418;7.572;2022-12-01T18:52:39;43.05;;;24.13;;
45887;SDS011;31595;51.418;7.572;2022-12-01T18:55:07;43.53;;;25.05;;
45887;SDS011;31595;51.418;7.572;2022-12-01T18:57:35;40.38;;;24.02;;
45887;SDS011;31595;51.418;7.572;2022-12-01T19:00:03;49.90;;;25.65;;
45887;SDS011;31595;51.418;7.572;2022-12-01T19:02:32;43.78;;;23.10;;
45887;SDS011;31595;51.418;7.572;2022-12-01T19:04:59;44.30;;;25.23;;
45887;SDS011;31595;51.418;7.572;2022-12-01T19:07:27;45.45;;;25.60;;
45887;SDS011;31595;51.418;7.572;2022-12-01T19:09:56;42.63;;;24.25;;
45887;SDS011;31595;51.418;7.572;2022-12-01T19:12:24;45.20;;;23.80;;
45887;SDS011;31595;51.418;7.572;2022-12-01T19:14:52;44.33;;;24.58;;
45887;SDS011;31595;51.418;7.572;2022-12-01T19:17:20;43.33;;;23.92;;
45887;SDS011;31595;51.418;7.572;2022-12-01T19:19:51;42.40;;;23.23;;
45887;SDS011;31595;51.418;7.572;2022-12-01T19:22:19;44.42;;;24.23;;
45887;SDS011;31595;51.418;7.572;2022-12-01T19:24:46;39.47;;;22.73;;
45887;SDS011;31595;51.418;7.572;2022-12-01T19:27:16;42.20;;;23.35;;
45887;SDS011;31595;51.418;7.572;2022-12-01T19:29:51;43.92;;;23.33;;
45887;SDS011;31595;51.418;7.572;2022-12-01T19:32:22;42.63;;;23.88;;
45887;SDS011;31595;51.418;7.572;2022-12-01T19:34:50;42.92;;;24.08;;
45887;SDS011;31595;51.418;7.572;2022-12-01T19:37:20;38.58;;;21.55;;
45887;SDS011;31595;51.418;7.572;2022-12-01T19:40:13;44.95;;;25.20;;
45887;SDS011;31595;51.418;7.572;2022-12-01T19:42:47;42.70;;;25.58;;
45887;SDS011;31595;51.418;7.572;2022-12-01T19:45:15;44.25;;;23.75;;
45887;SDS011;31595;51.418;7.572;2022-12-01T19:47:43;38.47;;;21.92;;
45887;SDS011;31595;51.418;7.572;2022-12-01T19:50:11;33.85;;;19.48;;
45887;SDS011;31595;51.418;7.572;2022-12-01T19:52:39;36.55;;;20.77;;
45887;SDS011;31595;51.418;7.572;2022-12-01T19:55:10;37.03;;;18.85;;
45887;SDS011;31595;51.418;7.572;2022-12-01T19:57:38;30.80;;;18.42;;
45887;SDS011;31595;51.418;7.572;2022-12-01T20:00:08;31.27;;;19.00;;
45887;SDS011;31595;51.418;7.572;2022-12-01T20:02:36;34.78;;;19.38;;
45887;SDS011;31595;51.418;7.572;2022-12-01T20:05:04;34.20;;;19.13;;
45887;SDS011;31595;51.418;7.572;2022-12-01T20:07:34;29.73;;;18.05;;
45887;SDS011;31595;51.418;7.572;2022-12-01T20:10:05;32.17;;;18.95;;
45887;SDS011;31595;51.418;7.572;2022-12-01T20:12:33;35.42;;;19.83;;
45887;SDS011;31595;51.418;7.572;2022-12-01T20:15:01;33.53;;;19.80;;
45887;SDS011;31595;51.418;7.572;2022-12-01T20:17:35;33.10;;;19.38;;
45887;SDS011;31595;51.418;7.572;2022-12-01T20:20:03;35.92;;;20.75;;
45887;SDS011;31595;51.418;7.572;2022-12-01T20:22:32;33.20;;;19.07;;
45887;SDS011;31595;51.418;7.572;2022-12-01T20:25:01;36.85;;;20.58;;
45887;SDS011;31595;51.418;7.572;2022-12-01T20:27:34;36.60;;;21.50;;
45887;SDS011;31595;51.418;7.572;2022-12-01T20:30:13;36.35;;;21.42;;
45887;SDS011;31595;51.418;7.572;2022-12-01T20:32:43;35.60;;;21.80;;
45887;SDS011;31595;51.418;7.572;2022-12-01T20:35:11;34.95;;;19.73;;
45887;SDS011;31595;51.418;7.572;2022-12-01T20:37:43;32.38;;;19.80;;
45887;SDS011;31595;51.418;7.572;2022-12-01T20:40:14;33.88;;;20.58;;
45887;SDS011;31595;51.418;7.572;2022-12-01T20:42:43;32.00;;;18.63;;
45887;SDS011;31595;51.418;7.572;2022-12-01T20:45:13;34.22;;;21.63;;
45887;SDS011;31595;51.418;7.572;2022-12-01T20:47:44;32.97;;;20.13;;
45887;SDS011;31595;51.418;7.572;2022-12-01T20:50:13;35.33;;;21.15;;
45887;SDS011;31595;51.418;7.572;2022-12-01T20:52:44;30.33;;;19.42;;
45887;SDS011;31595;51.418;7.572;2022-12-01T20:55:12;30.63;;;18.92;;
45887;SDS011;31595;51.418;7.572;2022-12-01T20:57:40;31.13;;;18.30;;
45887;SDS011;31595;51.418;7.572;2022-12-01T21:00:11;32.13;;;20.13;;
45887;SDS011;31595;51.418;7.572;2022-12-01T21:02:46;32.13;;;19.83;;
45887;SDS011;31595;51.418;7.572;2022-12-01T21:05:21;30.65;;;19.50;;
45887;SDS011;31595;51.418;7.572;2022-12-01T21:07:52;32.80;;;20.02;;
45887;SDS011;31595;51.418;7.572;2022-12-01T21:10:20;35.63;;;20.23;;
45887;SDS011;31595;51.418;7.572;2022-12-01T21:12:49;35.05;;;21.00;;
45887;SDS011;31595;51.418;7.572;2022-12-01T21:15:43;32.47;;;19.92;;
45887;SDS011;31595;51.418;7.572;2022-12-01T21:18:20;34.90;;;21.05;;
45887;SDS011;31595;51.418;7.572;2022-12-01T21:20:52;34.63;;;20.20;;
45887;SDS011;31595;51.418;7.572;2022-12-01T21:23:25;35.95;;;20.30;;
45887;SDS011;31595;51.418;7.572;2022-12-01T21:25:55;37.80;;;20.85;;
45887;SDS011;31595;51.418;7.572;2022-12-01T21:28:23;36.40;;;21.42;;
45887;SDS011;31595;51.418;7.572;2022-12-01T21:30:54;34.17;;;21.75;;
45887;SDS011;31595;51.418;7.572;2022-12-01T21:33:29;35.28;;;20.95;;
45887;SDS011;31595;51.418;7.572;2022-12-01T21:36:04;36.63;;;20.58;;
45887;SDS011;31595;51.418;7.572;2022-12-01T21:38:43;31.60;;;19.92;;
45887;SDS011;31595;51.418;7.572;2022-12-01T21:41:14;35.05;;;20.33;;
45887;SDS011;31595;51.418;7.572;2022-12-01T21:43:46;31.80;;;20.42;;
45887;SDS011;31595;51.418;7.572;2022-12-01T21:46:14;33.95;;;21.52;;
45887;SDS011;31595;51.418;7.572;2022-12-01T21:48:44;32.53;;;20.20;;
45887;SDS011;31595;51.418;7.572;2022-12-01T21:51:14;33.83;;;20.27;;
45887;SDS011;31595;51.418;7.572;2022-12-01T21:53:44;36.47;;;21.17;;
45887;SDS011;31595;51.418;7.572;2022-12-01T21:56:14;36.10;;;22.63;;
45887;SDS011;31595;51.418;7.572;2022-12-01T21:58:47;37.15;;;20.80;;
45887;SDS011;31595;51.418;7.572;2022-12-01T22:01:22;36.70;;;21.60;;
45887;SDS011;31595;51.418;7.572;2022-12-01T22:03:57;36.50;;;21.85;;
45887;SDS011;31595;51.418;7.572;2022-12-01T22:06:33;36.85;;;21.08;;
45887;SDS011;31595;51.418;7.572;2022-12-01T22:09:11;34.78;;;20.75;;
45887;SDS011;31595;51.418;7.572;2022-12-01T22:11:42;34.77;;;20.40;;
45887;SDS011;31595;51.418;7.572;2022-12-01T22:14:17;36.33;;;21.98;;
45887;SDS011;31595;51.418;7.572;2022-12-01T22:16:47;34.35;;;19.70;;
45887;SDS011;31595;51.418;7.572;2022-12-01T22:19:24;36.25;;;21.00;;
45887;SDS011;31595;51.418;7.572;2022-12-01T22:21:56;35.53;;;21.38;;
45887;SDS011;31595;51.418;7.572;2022-12-01T22:24:37;31.40;;;19.27;;
45887;SDS011;31595;51.418;7.572;2022-12-01T22:27:11;36.17;;;21.60;;
45887;SDS011;31595;51.418;7.572;2022-12-01T22:29:49;34.42;;;21.60;;
45887;SDS011;31595;51.418;7.572;2022-12-01T22:41:08;35.10;;;20.30;;
45887;SDS011;31595;51.418;7.572;2022-12-01T22:43:41;36.25;;;21.73;;
45887;SDS011;31595;51.418;7.572;2022-12-01T22:46:20;33.15;;;20.40;;
45887;SDS011;31595;51.418;7.572;2022-12-01T22:48:52;35.30;;;20.95;;
45887;SDS011;31595;51.418;7.572;2022-12-01T22:51:24;34.30;;;20.80;;
45887;SDS011;31595;51.418;7.572;2022-12-01T22:53:56;35.30;;;21.15;;
45887;SDS011;31595;51.418;7.572;2022-12-01T22:56:31;35.95;;;21.35;;
45887;SDS011;31595;51.418;7.572;2022-12-01T22:59:04;37.35;;;21.25;;
45887;SDS011;31595;51.418;7.572;2022-12-01T23:01:40;33.70;;;19.67;;
45887;SDS011;31595;51.418;7.572;2022-12-01T23:04:18;36.88;;;20.63;;
45887;SDS011;31595;51.418;7.572;2022-12-01T23:07:00;35.47;;;20.83;;
45887;SDS011;31595;51.418;7.572;2022-12-01T23:09:34;35.05;;;19.95;;
45887;SDS011;31595;51.418;7.572;2022-12-01T23:15:00;35.58;;;20.65;;
45887;SDS011;31595;51.418;7.572;2022-12-01T23:17:41;37.63;;;21.52;;
45887;SDS011;31595;51.418;7.572;2022-12-01T23:23:00;36.55;;;21.13;;
45887;SDS011;31595;51.418;7.572;2022-12-01T23:25:29;38.53;;;23.35;;
45887;SDS011;31595;51.418;7.572;2022-12-01T23:28:00;37.70;;;23.42;;
45887;SDS011;31595;51.418;7.572;2022-12-01T23:30:31;39.85;;;23.63;;
45887;SDS011;31595;51.418;7.572;2022-12-01T23:35:45;38.03;;;22.50;;
45887;SDS011;31595;51.418;7.572;2022-12-01T23:38:17;38.85;;;22.08;;
45887;SDS011;31595;51.418;7.572;2022-12-01T23:40:46;36.30;;;20.30;;
45887;SDS011;31595;51.418;7.572;2022-12-01T23:43:17;35.67;;;20.90;;
45887;SDS011;31595;51.418;7.572;2022-12-01T23:45:47;38.35;;;23.50;;
45887;SDS011;31595;51.418;7.572;2022-12-01T23:48:19;40.75;;;24.05;;
45887;SDS011;31595;51.418;7.572;2022-12-01T23:50:49;41.17;;;23.30;;
45887;SDS011;31595;51.418;7.572;2022-12-01T23:53:24;43.20;;;25.20;;
45887;SDS011;31595;51.418;7.572;2022-12-01T23:55:54;42.80;;;24.40;;
45887;SDS011;31595;51.418;7.572;2022-12-01T23:58:24;40.63;;;24.73;;
